Terminal Aerodrome Forecast
Issued by NWS

Home | Current Version | Previous Version | Text Only | Print | Product List | Glossary On
Versions: 1 2 3 4 5 6 7 8 9 10 11 12 13 14 15 16 17 18 19
000
FTUS44 KHGX 252340
TAFCXO
TAF
KCXO 252340Z 2600/2624 16014KT P6SM OVC045
     FM260300 16012G22KT P6SM BKN015
     FM260600 17017G23KT P6SM BKN015
     FM260700 16016G23KT P6SM OVC009
     FM261400 17014G21KT P6SM OVC012
     FM261800 24016G23KT P6SM BKN025
     FM262100 30018KT P6SM FEW060=

USA.gov is the U.S. government's official web portal to all federal, state and local government web resources and services.